createdAt,value
2023-05-10T00:00:17.291Z,74.10
2023-05-10T00:02:45.316Z,74.30
2023-05-10T00:07:54.952Z,74.20
2023-05-10T00:10:22.716Z,74.20
2023-05-10T00:12:50.571Z,74.30
2023-05-10T00:15:19.798Z,74.40
2023-05-10T00:17:47.563Z,74.40
2023-05-10T00:20:15.826Z,74.40
2023-05-10T00:22:43.828Z,74.30
2023-05-10T00:25:11.988Z,74.40
2023-05-10T00:27:39.726Z,74.40
2023-05-10T00:30:08.834Z,74.60
2023-05-10T00:32:38.046Z,74.50
2023-05-10T00:35:06.597Z,74.60
2023-05-10T00:37:34.385Z,74.60
2023-05-10T00:40:02.165Z,74.60
2023-05-10T00:42:30.376Z,75.60
2023-05-10T00:44:58.509Z,74.80
2023-05-10T00:47:26.343Z,74.90
2023-05-10T00:49:56.500Z,74.80
2023-05-10T00:52:25.245Z,74.80
2023-05-10T00:54:54.496Z,75.00
2023-05-10T00:57:23.126Z,75.00
2023-05-10T00:59:51.224Z,75.00
2023-05-10T01:02:19.103Z,75.00
2023-05-10T01:04:47.346Z,75.10
2023-05-10T01:07:16.694Z,75.10
2023-05-10T01:09:45.082Z,75.10
2023-05-10T01:12:14.664Z,75.10
2023-05-10T01:14:43.194Z,75.10
2023-05-10T01:17:13.160Z,75.10
2023-05-10T01:19:41.987Z,75.30
2023-05-10T01:22:28.209Z,75.40
2023-05-10T01:25:17.132Z,75.40
2023-05-10T01:28:25.566Z,75.50
2023-05-10T01:31:25.518Z,75.60
2023-05-10T01:34:01.145Z,75.60
2023-05-10T01:36:33.924Z,75.50
2023-05-10T01:39:09.795Z,75.60
2023-05-10T01:41:46.817Z,75.40
2023-05-10T01:44:22.570Z,75.60
2023-05-10T01:46:59.032Z,75.60
2023-05-10T01:49:34.238Z,75.70
2023-05-10T01:52:08.402Z,75.60
2023-05-10T01:54:40.720Z,75.20
2023-05-10T01:57:13.132Z,75.70
2023-05-10T01:59:42.411Z,75.70
2023-05-10T02:02:12.947Z,75.80
2023-05-10T02:04:44.248Z,75.80
2023-05-10T02:07:13.539Z,75.90
2023-05-10T02:09:43.372Z,75.90
2023-05-10T02:12:11.565Z,75.90
2023-05-10T02:14:41.322Z,75.90
2023-05-10T02:17:10.985Z,76.00
2023-05-10T02:19:42.217Z,75.90
2023-05-10T02:22:13.498Z,76.00
2023-05-10T02:24:42.643Z,76.10
2023-05-10T02:27:13.479Z,76.20
2023-05-10T02:29:41.609Z,76.20
2023-05-10T02:32:12.024Z,76.20
2023-05-10T02:34:43.051Z,76.20
2023-05-10T02:37:12.967Z,76.20
2023-05-10T02:39:44.844Z,76.30
2023-05-10T02:42:18.930Z,76.30
2023-05-10T02:44:49.994Z,76.40
2023-05-10T02:47:18.031Z,76.30
2023-05-10T02:49:46.338Z,76.40
2023-05-10T02:52:18.691Z,76.30
2023-05-10T02:54:49.317Z,76.40
2023-05-10T02:57:20.282Z,76.40
2023-05-10T02:59:48.570Z,76.40
2023-05-10T03:02:16.544Z,76.40
2023-05-10T03:04:44.666Z,76.40
2023-05-10T03:07:12.737Z,76.60
2023-05-10T03:09:42.602Z,76.50
2023-05-10T03:12:17.544Z,76.60
2023-05-10T03:14:55.022Z,76.60
2023-05-10T03:17:31.337Z,76.60
2023-05-10T03:20:06.307Z,76.70
2023-05-10T03:22:39.355Z,76.60
2023-05-10T03:25:12.585Z,76.70
2023-05-10T03:27:44.777Z,76.80
2023-05-10T03:30:14.967Z,76.80
2023-05-10T03:32:43.284Z,76.80
2023-05-10T03:35:11.654Z,76.90
2023-05-10T03:37:39.870Z,76.80
2023-05-10T03:40:11.941Z,76.80
2023-05-10T03:42:39.962Z,76.90
2023-05-10T03:45:09.579Z,76.90
2023-05-10T03:47:38.201Z,77.00
2023-05-10T03:50:07.465Z,76.90
2023-05-10T03:52:35.506Z,77.00
2023-05-10T03:55:04.727Z,77.00
2023-05-10T03:57:34.411Z,76.90
2023-05-10T04:00:02.428Z,77.00
2023-05-10T04:02:31.072Z,77.00
2023-05-10T04:04:59.250Z,77.00
2023-05-10T04:07:27.231Z,77.00
2023-05-10T04:09:55.246Z,77.10
2023-05-10T04:12:23.681Z,77.10
2023-05-10T04:14:53.035Z,77.10
2023-05-10T04:17:21.107Z,77.10
2023-05-10T04:19:54.024Z,77.10
2023-05-10T04:22:22.114Z,78.00
2023-05-10T04:24:50.112Z,78.00
2023-05-10T04:27:18.636Z,77.20
2023-05-10T04:29:46.694Z,77.30
2023-05-10T04:32:18.221Z,77.30
2023-05-10T04:34:46.382Z,77.30
2023-05-10T04:37:14.522Z,77.30
2023-05-10T04:39:42.632Z,77.30
2023-05-10T04:42:15.798Z,77.50
2023-05-10T04:44:43.824Z,77.30
2023-05-10T04:47:12.817Z,77.40
2023-05-10T04:49:42.285Z,77.40
2023-05-10T04:52:10.596Z,77.50
2023-05-10T04:54:38.710Z,77.50
2023-05-10T04:57:06.624Z,77.50
2023-05-10T04:59:37.415Z,77.50
2023-05-10T05:02:09.611Z,77.70
2023-05-10T05:04:37.844Z,77.70
2023-05-10T05:07:07.273Z,77.60
2023-05-10T05:09:35.492Z,77.70
2023-05-10T05:12:03.564Z,77.70
2023-05-10T05:14:31.505Z,77.70
2023-05-10T05:16:59.453Z,77.70
2023-05-10T05:19:27.530Z,77.80
2023-05-10T05:21:55.712Z,77.80
2023-05-10T05:24:25.069Z,77.80
2023-05-10T05:26:53.050Z,77.80
2023-05-10T05:29:21.056Z,77.80
2023-05-10T05:31:49.068Z,77.80
2023-05-10T05:34:17.022Z,77.70
2023-05-10T05:36:44.980Z,77.80
2023-05-10T05:39:12.891Z,77.80
2023-05-10T05:41:42.204Z,77.80
2023-05-10T05:44:10.237Z,77.90
2023-05-10T05:46:38.242Z,77.80
2023-05-10T05:49:06.471Z,77.90
2023-05-10T05:51:36.457Z,78.00
2023-05-10T05:54:05.273Z,78.00
2023-05-10T05:56:33.243Z,77.90
2023-05-10T05:59:02.992Z,77.80
2023-05-10T06:01:30.863Z,77.90
2023-05-10T06:03:59.113Z,78.00
2023-05-10T06:06:27.110Z,78.20
2023-05-10T06:08:55.023Z,78.20
2023-05-10T06:11:23.181Z,78.20
2023-05-10T06:13:51.957Z,78.30
2023-05-10T06:16:21.461Z,78.20
2023-05-10T06:18:49.427Z,78.20
2023-05-10T06:21:20.390Z,78.20
2023-05-10T06:23:48.332Z,78.30
2023-05-10T06:26:16.368Z,78.50
2023-05-10T06:28:44.785Z,78.40
2023-05-10T06:31:13.433Z,78.40
2023-05-10T06:33:42.830Z,78.50
2023-05-10T06:36:10.918Z,78.50
2023-05-10T06:38:38.856Z,78.60
2023-05-10T06:41:06.996Z,78.60
2023-05-10T06:43:34.987Z,78.60
2023-05-10T06:46:02.976Z,78.70
2023-05-10T06:48:31.361Z,78.70
2023-05-10T06:51:00.752Z,78.70
2023-05-10T06:53:28.939Z,78.90
2023-05-10T06:55:56.918Z,78.70
2023-05-10T06:58:24.861Z,78.80
2023-05-10T07:00:52.928Z,78.70
2023-05-10T07:03:21.011Z,78.90
2023-05-10T07:05:48.956Z,78.80
2023-05-10T07:08:19.109Z,78.80
2023-05-10T07:10:47.243Z,78.90
2023-05-10T07:13:15.312Z,78.90
2023-05-10T07:15:43.369Z,78.80
2023-05-10T07:18:11.662Z,79.00
2023-05-10T07:20:39.579Z,79.00
2023-05-10T07:23:07.494Z,78.90
2023-05-10T07:25:37.024Z,78.90
2023-05-10T07:28:05.234Z,79.00
2023-05-10T07:30:33.535Z,79.00
2023-05-10T07:33:01.646Z,79.00
2023-05-10T07:35:29.634Z,79.10
2023-05-10T07:37:57.641Z,79.10
2023-05-10T07:40:25.708Z,79.10
2023-05-10T07:42:55.062Z,79.00
2023-05-10T07:45:23.042Z,79.20
2023-05-10T07:47:51.441Z,79.20
2023-05-10T07:50:19.479Z,79.10
2023-05-10T07:52:47.832Z,79.10
2023-05-10T07:55:16.074Z,79.20
2023-05-10T07:57:44.577Z,79.20
2023-05-10T08:00:18.792Z,79.30
2023-05-10T08:02:46.752Z,79.20
2023-05-10T08:05:15.787Z,79.50
2023-05-10T08:07:43.934Z,79.50
2023-05-10T08:10:13.028Z,79.60
2023-05-10T08:12:41.113Z,79.60
2023-05-10T08:15:10.109Z,79.70
2023-05-10T08:17:40.688Z,79.60
2023-05-10T08:20:09.644Z,79.60
2023-05-10T08:22:38.480Z,79.60
2023-05-10T08:25:07.711Z,79.70
2023-05-10T08:27:35.639Z,79.60
2023-05-10T08:30:03.660Z,79.60
2023-05-10T08:32:32.208Z,79.60
2023-05-10T08:35:01.595Z,79.60
2023-05-10T08:37:33.237Z,79.80
2023-05-10T08:40:01.316Z,79.60
2023-05-10T08:42:32.252Z,79.70
2023-05-10T08:45:03.578Z,79.60
2023-05-10T08:47:31.937Z,79.70
2023-05-10T08:50:02.131Z,79.70
2023-05-10T08:52:32.051Z,80.00
2023-05-10T08:55:00.653Z,79.90
2023-05-10T08:57:29.513Z,80.10
2023-05-10T08:59:57.632Z,80.10
2023-05-10T09:02:26.100Z,80.10
2023-05-10T09:04:54.459Z,80.20
2023-05-10T09:07:23.900Z,80.30
2023-05-10T09:09:52.282Z,80.70
2023-05-10T09:12:20.264Z,81.10
2023-05-10T09:14:48.765Z,81.30
2023-05-10T09:17:16.805Z,81.00
2023-05-10T09:19:44.966Z,81.00
2023-05-10T09:22:13.137Z,81.20
2023-05-10T09:24:46.135Z,81.40
2023-05-10T09:27:14.280Z,81.20
2023-05-10T09:29:44.064Z,81.30
2023-05-10T09:32:13.920Z,81.20
2023-05-10T09:34:43.308Z,81.00
2023-05-10T09:37:11.733Z,81.10
2023-05-10T09:39:40.438Z,81.10
2023-05-10T09:42:11.198Z,81.10
2023-05-10T09:44:40.352Z,81.20
2023-05-10T09:47:08.556Z,81.20
2023-05-10T09:49:36.829Z,81.30
2023-05-10T09:52:07.214Z,81.40
2023-05-10T09:54:36.300Z,81.40
2023-05-10T09:57:04.511Z,81.40
2023-05-10T09:59:36.262Z,81.40
2023-05-10T10:02:04.936Z,81.50
2023-05-10T10:04:33.108Z,81.50
2023-05-10T10:07:02.672Z,81.40
2023-05-10T10:09:31.100Z,81.50
2023-05-10T10:11:59.936Z,81.60
2023-05-10T10:14:27.990Z,81.50
2023-05-10T10:17:07.372Z,81.70
2023-05-10T10:19:37.848Z,82.00
2023-05-10T10:22:06.827Z,82.10
2023-05-10T10:24:35.174Z,82.10
2023-05-10T10:27:14.599Z,82.10
2023-05-10T10:30:01.377Z,82.40
2023-05-10T10:32:40.059Z,82.50
2023-05-10T10:35:10.524Z,82.40
2023-05-10T10:37:47.245Z,82.60
2023-05-10T10:40:28.593Z,82.90
2023-05-10T10:42:57.427Z,83.40
2023-05-10T10:45:26.409Z,83.10
2023-05-10T10:48:23.358Z,83.20
2023-05-10T10:50:58.603Z,83.30
2023-05-10T10:53:28.869Z,83.30
2023-05-10T10:56:08.579Z,83.30
2023-05-10T10:58:37.196Z,83.40
2023-05-10T11:01:15.766Z,83.70
2023-05-10T11:04:22.919Z,83.50
2023-05-10T11:06:51.044Z,83.60
2023-05-10T11:09:19.033Z,83.60
2023-05-10T11:11:56.302Z,83.60
2023-05-10T11:14:24.776Z,83.80
2023-05-10T11:16:52.923Z,83.70
2023-05-10T11:19:22.376Z,83.70
2023-05-10T11:21:51.881Z,83.80
2023-05-10T11:24:23.004Z,83.80
2023-05-10T11:26:52.213Z,83.90
2023-05-10T11:29:20.904Z,83.90
2023-05-10T11:31:50.146Z,83.90
2023-05-10T11:34:31.113Z,84.00
2023-05-10T11:36:59.557Z,84.10
2023-05-10T11:39:28.853Z,84.00
2023-05-10T11:41:57.412Z,84.00
2023-05-10T11:44:25.988Z,83.90
2023-05-10T11:46:54.299Z,83.90
2023-05-10T11:49:26.650Z,84.00
2023-05-10T11:52:05.257Z,84.00
2023-05-10T11:54:35.761Z,83.90
2023-05-10T11:57:03.892Z,84.00
2023-05-10T11:59:31.970Z,84.00
2023-05-10T12:02:00.025Z,84.00
2023-05-10T12:04:30.301Z,84.00
2023-05-10T12:06:59.812Z,84.10
2023-05-10T12:09:42.662Z,84.10
2023-05-10T12:12:11.916Z,84.00
2023-05-10T12:14:39.852Z,84.00
2023-05-10T12:17:07.841Z,84.00
2023-05-10T12:19:41.903Z,83.90
2023-05-10T12:22:11.783Z,83.90
2023-05-10T12:24:40.145Z,83.90
2023-05-10T12:27:10.325Z,83.80
2023-05-10T12:29:42.213Z,83.80
2023-05-10T12:32:11.200Z,83.80
2023-05-10T12:34:39.393Z,83.80
2023-05-10T12:37:07.527Z,83.70
2023-05-10T12:39:45.051Z,83.60
2023-05-10T12:42:13.139Z,83.50
2023-05-10T12:44:44.150Z,83.50
2023-05-10T12:47:12.848Z,83.50
2023-05-10T12:49:40.889Z,83.30
2023-05-10T12:52:13.254Z,83.30
2023-05-10T12:54:41.245Z,83.50
2023-05-10T12:57:10.759Z,83.20
2023-05-10T12:59:38.756Z,83.40
2023-05-10T13:02:06.996Z,83.30
2023-05-10T13:04:35.187Z,83.20
2023-05-10T13:07:05.478Z,83.20
2023-05-10T13:09:33.438Z,83.20
2023-05-10T13:12:01.527Z,83.20
2023-05-10T13:14:31.167Z,83.20
2023-05-10T13:16:59.387Z,83.30
2023-05-10T13:19:28.373Z,83.20
2023-05-10T13:21:56.437Z,83.40
2023-05-10T13:24:24.394Z,83.20
2023-05-10T13:26:53.670Z,83.30
2023-05-10T13:29:25.119Z,83.30
2023-05-10T13:31:54.734Z,83.30
2023-05-10T13:34:22.789Z,83.30
2023-05-10T13:36:50.762Z,83.20
2023-05-10T13:39:21.707Z,83.20
2023-05-10T13:41:50.035Z,83.30
2023-05-10T13:44:18.074Z,83.20
2023-05-10T13:46:51.924Z,83.20
2023-05-10T13:49:22.513Z,83.20
2023-05-10T13:51:50.651Z,83.20
2023-05-10T13:54:20.494Z,83.20
2023-05-10T13:56:49.522Z,83.20
2023-05-10T13:59:18.718Z,83.20
2023-05-10T14:01:46.859Z,83.00
2023-05-10T14:04:14.989Z,83.00
2023-05-10T14:06:44.277Z,83.10
2023-05-10T14:09:18.976Z,83.00
2023-05-10T14:11:47.006Z,83.00
2023-05-10T14:14:25.255Z,82.90
2023-05-10T14:16:53.204Z,82.90
2023-05-10T14:19:23.085Z,83.70
2023-05-10T14:21:52.996Z,82.80
2023-05-10T14:24:22.865Z,82.80
2023-05-10T14:26:54.573Z,82.70
2023-05-10T14:29:23.002Z,82.80
2023-05-10T14:31:53.720Z,82.70
2023-05-10T14:34:27.915Z,82.70
2023-05-10T14:36:59.377Z,82.70
2023-05-10T14:39:30.442Z,82.70
2023-05-10T14:41:59.736Z,82.70
2023-05-10T14:44:27.881Z,82.70
2023-05-10T14:46:56.156Z,82.70
2023-05-10T14:49:26.704Z,82.70
2023-05-10T14:51:54.997Z,82.70
2023-05-10T14:54:24.359Z,82.70
2023-05-10T14:56:52.267Z,82.70
2023-05-10T14:59:20.727Z,82.60
2023-05-10T15:04:46.343Z,82.60
2023-05-10T15:07:16.488Z,82.60
2023-05-10T15:09:46.094Z,82.50
2023-05-10T15:12:17.136Z,82.50
2023-05-10T15:14:45.325Z,82.60
2023-05-10T15:17:28.973Z,82.60
2023-05-10T15:20:22.258Z,82.60
2023-05-10T15:23:03.774Z,82.60
2023-05-10T15:25:40.764Z,82.60
2023-05-10T15:28:23.065Z,82.60
2023-05-10T15:31:01.531Z,82.60
2023-05-10T15:33:31.732Z,82.60
2023-05-10T15:36:17.580Z,82.50
2023-05-10T15:39:23.243Z,82.50
2023-05-10T15:41:59.347Z,82.50
2023-05-10T15:44:37.804Z,82.50
2023-05-10T15:47:15.856Z,82.50
2023-05-10T15:49:51.833Z,82.50
2023-05-10T15:52:23.827Z,82.50
2023-05-10T15:54:54.624Z,82.50
2023-05-10T15:57:29.001Z,82.50
2023-05-10T16:00:54.659Z,82.50
2023-05-10T16:03:40.616Z,82.50
2023-05-10T16:06:20.888Z,82.50
2023-05-10T16:09:23.669Z,82.50
2023-05-10T16:11:57.817Z,82.50
2023-05-10T16:14:36.204Z,82.50
2023-05-10T16:17:45.033Z,82.70
2023-05-10T16:20:52.350Z,82.70
2023-05-10T16:23:44.470Z,82.70
2023-05-10T16:26:24.661Z,82.50
2023-05-10T16:29:45.647Z,82.70
2023-05-10T16:32:50.517Z,82.60
2023-05-10T16:36:16.919Z,82.50
2023-05-10T16:38:51.391Z,82.50
2023-05-10T16:41:29.406Z,82.50
2023-05-10T16:44:44.907Z,82.50
2023-05-10T16:47:18.995Z,82.50
2023-05-10T16:49:50.469Z,82.50
2023-05-10T16:52:30.033Z,82.50
2023-05-10T16:55:07.267Z,82.50
2023-05-10T16:57:36.534Z,82.50
2023-05-10T17:00:11.588Z,82.40
2023-05-10T17:02:48.469Z,82.40
2023-05-10T17:05:18.823Z,82.40
2023-05-10T17:07:58.141Z,82.40
2023-05-10T17:10:26.403Z,82.40
2023-05-10T17:13:10.939Z,82.40
2023-05-10T17:15:39.877Z,82.40
2023-05-10T17:18:10.349Z,82.50
2023-05-10T17:20:42.795Z,82.40
2023-05-10T17:23:18.063Z,82.50
2023-05-10T17:25:46.178Z,82.70
2023-05-10T17:28:16.293Z,82.80
2023-05-10T17:30:44.554Z,82.90
2023-05-10T17:33:12.766Z,83.20
2023-05-10T17:35:40.875Z,83.00
2023-05-10T17:38:08.852Z,83.10
2023-05-10T17:40:41.658Z,83.40
2023-05-10T17:43:09.891Z,83.80
2023-05-10T17:45:44.143Z,84.10
2023-05-10T17:48:17.870Z,84.60
2023-05-10T17:50:47.443Z,84.60
2023-05-10T17:53:17.854Z,85.00
2023-05-10T17:55:47.781Z,85.20
2023-05-10T17:58:15.894Z,85.30
2023-05-10T18:00:46.598Z,85.50
2023-05-10T18:03:22.858Z,85.70
2023-05-10T18:06:02.363Z,85.70
2023-05-10T18:08:30.754Z,85.60
2023-05-10T18:11:00.294Z,85.70
2023-05-10T18:13:28.806Z,85.80
2023-05-10T18:16:01.723Z,85.70
2023-05-10T18:18:29.862Z,85.70
2023-05-10T18:20:58.287Z,86.40
2023-05-10T18:23:26.682Z,86.40
2023-05-10T18:25:58.812Z,86.10
2023-05-10T18:28:27.025Z,85.80
2023-05-10T18:30:55.131Z,86.20
2023-05-10T18:33:23.221Z,86.20
2023-05-10T18:35:52.876Z,86.00
2023-05-10T18:38:21.307Z,85.50
2023-05-10T18:40:52.369Z,86.10
2023-05-10T18:43:21.810Z,85.50
2023-05-10T18:45:50.962Z,85.80
2023-05-10T18:48:19.106Z,85.70
2023-05-10T18:50:47.269Z,86.40
2023-05-10T18:53:29.749Z,86.20
2023-05-10T18:56:00.090Z,86.30
2023-05-10T18:58:31.256Z,86.20
2023-05-10T19:00:59.646Z,85.90
2023-05-10T19:03:27.701Z,86.20
2023-05-10T19:05:58.773Z,85.60
2023-05-10T19:08:26.888Z,85.80
2023-05-10T19:10:55.916Z,85.80
2023-05-10T19:13:24.662Z,85.10
2023-05-10T19:16:05.783Z,85.00
2023-05-10T19:18:39.535Z,85.30
2023-05-10T19:21:10.846Z,85.80
2023-05-10T19:23:40.259Z,85.80
2023-05-10T19:26:09.359Z,85.50
2023-05-10T19:28:37.886Z,85.50
2023-05-10T19:31:11.597Z,85.80
2023-05-10T19:33:40.659Z,85.00
2023-05-10T19:36:09.271Z,85.00
2023-05-10T19:38:40.736Z,85.80
2023-05-10T19:41:13.234Z,85.30
2023-05-10T19:43:42.472Z,85.40
2023-05-10T19:46:13.352Z,85.50
2023-05-10T19:48:42.069Z,85.90
2023-05-10T19:51:12.485Z,85.20
2023-05-10T19:53:44.222Z,85.10
2023-05-10T19:56:13.092Z,85.10
2023-05-10T19:58:44.272Z,85.10
2023-05-10T20:01:13.833Z,85.30
2023-05-10T20:03:41.874Z,85.00
2023-05-10T20:06:09.831Z,85.10
2023-05-10T20:08:39.881Z,85.20
2023-05-10T20:11:08.440Z,85.10
2023-05-10T20:13:36.880Z,85.60
2023-05-10T20:16:06.076Z,85.00
2023-05-10T20:18:35.461Z,85.10
2023-05-10T20:21:03.548Z,85.10
2023-05-10T20:23:31.598Z,85.10
2023-05-10T20:25:59.757Z,85.10
2023-05-10T20:28:28.283Z,85.30
2023-05-10T20:30:57.240Z,85.30
2023-05-10T20:33:25.516Z,85.30
2023-05-10T20:35:54.835Z,85.50
2023-05-10T20:38:22.898Z,85.30
2023-05-10T20:40:50.844Z,85.30
2023-05-10T20:43:18.805Z,85.90
2023-05-10T20:45:46.798Z,85.70
2023-05-10T20:48:14.745Z,85.70
2023-05-10T20:50:42.672Z,86.00
2023-05-10T20:53:14.362Z,86.00
2023-05-10T20:55:42.837Z,86.00
2023-05-10T20:58:10.820Z,85.80
2023-05-10T21:00:39.306Z,86.40
2023-05-10T21:03:07.310Z,85.80
2023-05-10T21:05:36.029Z,85.90
2023-05-10T21:08:03.952Z,85.80
2023-05-10T21:10:33.275Z,86.50
2023-05-10T21:13:01.310Z,86.00
2023-05-10T21:15:29.303Z,86.20
2023-05-10T21:17:59.999Z,86.00
2023-05-10T21:20:28.128Z,86.40
2023-05-10T21:22:56.101Z,87.10
2023-05-10T21:25:25.728Z,86.10
2023-05-10T21:27:55.080Z,86.70
2023-05-10T21:30:23.430Z,86.40
2023-05-10T21:32:51.456Z,86.40
2023-05-10T21:35:19.445Z,86.20
2023-05-10T21:37:47.413Z,86.50
2023-05-10T21:40:15.742Z,86.20
2023-05-10T21:42:43.873Z,86.30
2023-05-10T21:45:13.533Z,86.30
2023-05-10T21:47:41.506Z,86.30
2023-05-10T21:50:11.193Z,86.70
2023-05-10T21:52:39.358Z,86.50
2023-05-10T21:55:08.644Z,86.30
2023-05-10T21:57:37.124Z,86.70
2023-05-10T22:00:06.932Z,86.50
2023-05-10T22:02:36.345Z,86.80
2023-05-10T22:05:05.041Z,86.50
2023-05-10T22:07:33.226Z,86.60
2023-05-10T22:10:01.239Z,86.50
2023-05-10T22:12:29.246Z,86.60
2023-05-10T22:15:09.519Z,86.80
2023-05-10T22:17:44.194Z,86.90
2023-05-10T22:20:14.691Z,87.10
2023-05-10T22:22:42.757Z,86.90
2023-05-10T22:25:10.996Z,87.00
2023-05-10T22:27:38.956Z,86.90
2023-05-10T22:30:08.657Z,87.80
2023-05-10T22:32:36.704Z,86.90
2023-05-10T22:35:06.697Z,87.10
2023-05-10T22:37:34.680Z,87.20
2023-05-10T22:40:02.681Z,87.40
2023-05-10T22:42:31.085Z,87.10
2023-05-10T22:44:59.572Z,87.20
2023-05-10T22:47:27.639Z,87.30
2023-05-10T22:49:56.233Z,87.20
2023-05-10T22:52:25.650Z,87.20
2023-05-10T22:54:53.593Z,87.40
2023-05-10T22:57:21.576Z,87.40
2023-05-10T22:59:49.756Z,87.40
2023-05-10T23:02:17.971Z,87.30
2023-05-10T23:04:46.378Z,87.40
2023-05-10T23:07:14.409Z,87.40
2023-05-10T23:09:43.752Z,87.40
2023-05-10T23:12:12.287Z,87.40
2023-05-10T23:14:41.446Z,87.60
2023-05-10T23:17:09.613Z,87.40
2023-05-10T23:19:37.494Z,87.40
2023-05-10T23:22:05.371Z,87.70
2023-05-10T23:24:33.230Z,87.50
2023-05-10T23:27:02.533Z,87.70
2023-05-10T23:29:33.033Z,87.70
2023-05-10T23:32:01.200Z,87.70
2023-05-10T23:34:29.334Z,87.70
2023-05-10T23:36:57.276Z,87.80
2023-05-10T23:39:25.233Z,87.90
2023-05-10T23:41:53.596Z,87.80
2023-05-10T23:44:23.389Z,87.80
2023-05-10T23:46:51.360Z,88.10
2023-05-10T23:49:19.507Z,87.80
2023-05-10T23:51:47.382Z,87.80
2023-05-10T23:54:17.221Z,87.90
2023-05-10T23:56:45.261Z,88.80
2023-05-10T23:59:13.136Z,87.80
